createdAt,value
2022-07-25T00:02:13.056Z,25.20
2022-07-25T00:04:42.177Z,25.20
2022-07-25T00:07:11.032Z,25.20
2022-07-25T00:09:39.413Z,25.20
2022-07-25T00:12:08.131Z,25.20
2022-07-25T00:14:39.461Z,25.20
2022-07-25T00:17:07.608Z,25.30
2022-07-25T00:19:35.976Z,25.20
2022-07-25T00:22:04.392Z,25.20
2022-07-25T00:24:32.605Z,25.20
2022-07-25T00:27:00.950Z,25.20
2022-07-25T00:29:29.267Z,25.20
2022-07-25T00:31:57.665Z,25.30
2022-07-25T00:34:26.124Z,25.20
2022-07-25T00:36:54.514Z,25.20
2022-07-25T00:39:22.686Z,25.10
2022-07-25T00:41:51.336Z,25.20
2022-07-25T00:44:29.564Z,25.10
2022-07-25T00:46:59.128Z,25.10
2022-07-25T00:49:28.255Z,25.00
2022-07-25T00:51:56.682Z,25.00
2022-07-25T00:54:25.404Z,25.00
2022-07-25T00:56:53.546Z,25.00
2022-07-25T00:59:21.796Z,25.00
2022-07-25T01:01:50.524Z,25.00
2022-07-25T01:04:18.856Z,25.00
2022-07-25T01:06:47.495Z,25.00
2022-07-25T01:09:16.374Z,24.90
2022-07-25T01:11:44.686Z,25.00
2022-07-25T01:14:13.047Z,24.90
2022-07-25T01:16:41.175Z,24.90
2022-07-25T01:19:10.170Z,24.90
2022-07-25T01:21:40.436Z,24.90
2022-07-25T01:24:09.296Z,24.90
2022-07-25T01:26:38.495Z,24.80
2022-07-25T01:29:07.158Z,24.80
2022-07-25T01:31:35.531Z,24.70
2022-07-25T01:34:04.280Z,24.70
2022-07-25T01:36:32.820Z,24.70
2022-07-25T01:39:01.037Z,24.60
2022-07-25T01:41:29.259Z,24.70
2022-07-25T01:43:57.567Z,24.70
2022-07-25T01:46:25.774Z,24.60
2022-07-25T01:48:54.141Z,24.50
2022-07-25T01:51:22.524Z,24.50
2022-07-25T01:53:54.728Z,24.50
2022-07-25T01:56:23.071Z,24.50
2022-07-25T01:58:52.085Z,24.50
2022-07-25T02:01:22.065Z,24.50
2022-07-25T02:03:51.469Z,24.50
2022-07-25T02:06:19.721Z,24.50
2022-07-25T02:08:48.001Z,24.50
2022-07-25T02:11:16.399Z,24.40
2022-07-25T02:13:44.511Z,24.40
2022-07-25T02:16:13.118Z,24.40
2022-07-25T02:18:42.478Z,24.40
2022-07-25T02:21:14.208Z,24.40
2022-07-25T02:23:43.207Z,24.40
2022-07-25T02:26:12.221Z,24.40
2022-07-25T02:28:41.293Z,24.40
2022-07-25T02:31:10.298Z,24.30
2022-07-25T02:33:39.149Z,24.20
2022-07-25T02:36:07.937Z,24.20
2022-07-25T02:38:36.292Z,24.20
2022-07-25T02:41:05.298Z,24.20
2022-07-25T02:43:33.407Z,24.20
2022-07-25T02:48:04.386Z,24.10
2022-07-25T02:50:32.655Z,24.10
2022-07-25T02:53:00.771Z,24.10
2022-07-25T02:55:29.172Z,24.00
2022-07-25T02:57:57.442Z,24.00
2022-07-25T03:00:25.900Z,24.00
2022-07-25T03:02:54.251Z,23.90
2022-07-25T03:05:22.433Z,23.90
2022-07-25T03:07:50.940Z,23.90
2022-07-25T03:10:19.074Z,23.80
2022-07-25T03:12:47.560Z,23.80
2022-07-25T03:15:16.171Z,23.80
2022-07-25T03:17:44.547Z,23.80
2022-07-25T03:20:12.999Z,23.80
2022-07-25T03:22:41.331Z,23.80
2022-07-25T03:25:15.747Z,23.80
2022-07-25T03:27:50.529Z,23.80
2022-07-25T03:30:18.825Z,23.80
2022-07-25T03:32:47.153Z,23.80
2022-07-25T03:35:16.049Z,23.80
2022-07-25T03:37:44.362Z,23.80
2022-07-25T03:40:13.203Z,23.70
2022-07-25T03:42:42.137Z,23.70
2022-07-25T03:45:10.771Z,23.70
2022-07-25T03:47:39.126Z,23.70
2022-07-25T03:50:07.775Z,23.70
2022-07-25T03:52:35.981Z,23.70
2022-07-25T03:55:04.676Z,23.70
2022-07-25T03:57:32.884Z,23.70
2022-07-25T04:00:01.215Z,23.80
2022-07-25T04:02:29.512Z,23.70
2022-07-25T04:04:59.189Z,23.70
2022-07-25T04:07:27.864Z,23.70
2022-07-25T04:09:56.033Z,23.70
2022-07-25T04:12:24.514Z,23.70
2022-07-25T04:14:52.769Z,23.70
2022-07-25T04:17:21.118Z,23.70
2022-07-25T04:19:49.678Z,23.70
2022-07-25T04:22:17.982Z,23.60
2022-07-25T04:24:46.127Z,23.60
2022-07-25T04:27:14.387Z,23.60
2022-07-25T04:29:42.696Z,23.60
2022-07-25T04:32:11.087Z,23.70
2022-07-25T04:34:39.426Z,23.60
2022-07-25T04:37:07.696Z,23.60
2022-07-25T04:39:35.947Z,23.70
2022-07-25T04:42:04.349Z,23.70
2022-07-25T04:44:32.714Z,23.70
2022-07-25T04:47:00.941Z,23.70
2022-07-25T04:49:29.656Z,23.60
2022-07-25T04:51:57.772Z,23.70
2022-07-25T04:54:25.979Z,23.70
2022-07-25T04:56:54.319Z,23.70
2022-07-25T04:59:22.474Z,23.70
2022-07-25T05:01:50.841Z,23.60
2022-07-25T05:04:19.389Z,23.60
2022-07-25T05:06:47.476Z,23.60
2022-07-25T05:09:15.704Z,23.60
2022-07-25T05:11:47.972Z,23.60
2022-07-25T05:14:18.110Z,23.60
2022-07-25T05:16:49.134Z,23.60
2022-07-25T05:19:17.492Z,23.50
2022-07-25T05:21:45.695Z,23.60
2022-07-25T05:24:14.084Z,23.60
2022-07-25T05:26:42.426Z,23.50
2022-07-25T05:29:10.531Z,23.50
2022-07-25T05:31:39.036Z,23.50
2022-07-25T05:34:07.692Z,23.50
2022-07-25T05:36:36.171Z,23.50
2022-07-25T05:39:05.272Z,23.40
2022-07-25T05:41:33.479Z,23.40
2022-07-25T05:44:01.805Z,23.40
2022-07-25T05:46:30.113Z,23.30
2022-07-25T05:48:58.561Z,23.30
2022-07-25T05:51:27.687Z,23.30
2022-07-25T05:53:55.934Z,23.30
2022-07-25T05:56:24.250Z,23.30
2022-07-25T05:58:52.361Z,23.30
2022-07-25T06:01:20.587Z,23.30
2022-07-25T06:03:49.009Z,23.30
2022-07-25T06:06:17.233Z,23.20
2022-07-25T06:08:45.421Z,23.20
2022-07-25T06:11:13.791Z,23.20
2022-07-25T06:13:42.276Z,23.20
2022-07-25T06:16:10.586Z,23.10
2022-07-25T06:18:38.718Z,23.10
2022-07-25T06:21:07.228Z,23.20
2022-07-25T06:23:35.370Z,23.10
2022-07-25T06:26:03.668Z,23.10
2022-07-25T06:28:31.999Z,23.10
2022-07-25T06:31:00.795Z,23.10
2022-07-25T06:33:29.019Z,23.10
2022-07-25T06:35:57.315Z,23.10
2022-07-25T06:38:25.410Z,23.10
2022-07-25T06:40:53.717Z,23.20
2022-07-25T06:43:22.010Z,23.20
2022-07-25T06:45:51.674Z,23.20
2022-07-25T06:48:23.112Z,23.20
2022-07-25T06:50:52.172Z,23.30
2022-07-25T06:53:22.035Z,23.30
2022-07-25T06:55:50.250Z,23.30
2022-07-25T06:58:18.551Z,23.30
2022-07-25T07:00:51.322Z,23.40
2022-07-25T07:03:19.706Z,23.40
2022-07-25T07:05:48.006Z,23.40
2022-07-25T07:08:16.119Z,23.40
2022-07-25T07:10:44.646Z,23.40
2022-07-25T07:13:15.116Z,23.50
2022-07-25T07:15:48.243Z,23.50
2022-07-25T07:18:17.264Z,23.50
2022-07-25T07:20:45.737Z,23.60
2022-07-25T07:23:16.598Z,23.60
2022-07-25T07:25:46.771Z,23.70
2022-07-25T07:28:16.115Z,23.70
2022-07-25T07:31:15.570Z,23.80
2022-07-25T07:33:33.187Z,23.80
2022-07-25T07:36:02.708Z,23.80
2022-07-25T07:38:30.985Z,23.80
2022-07-25T07:40:59.223Z,23.90
2022-07-25T07:43:29.890Z,23.90
2022-07-25T07:45:59.623Z,23.90
2022-07-25T07:48:32.192Z,24.00
2022-07-25T07:51:02.707Z,24.10
2022-07-25T07:53:31.544Z,24.20
2022-07-25T07:55:59.788Z,24.30
2022-07-25T07:58:28.204Z,24.40
2022-07-25T08:00:56.441Z,24.30
2022-07-25T08:03:24.735Z,24.40
2022-07-25T08:05:53.179Z,24.40
2022-07-25T08:08:21.508Z,24.40
2022-07-25T08:10:54.493Z,24.50
2022-07-25T08:13:30.718Z,24.50
2022-07-25T08:16:00.957Z,24.60
2022-07-25T08:18:30.299Z,24.70
2022-07-25T08:20:59.014Z,24.70
2022-07-25T08:23:27.279Z,24.80
2022-07-25T08:25:55.856Z,24.90
2022-07-25T08:28:24.031Z,25.00
2022-07-25T08:30:52.485Z,25.00
2022-07-25T08:33:21.140Z,25.10
2022-07-25T08:35:51.211Z,25.20
2022-07-25T08:38:20.223Z,25.20
2022-07-25T08:40:49.018Z,25.20
2022-07-25T08:43:18.545Z,25.30
2022-07-25T08:45:49.162Z,25.40
2022-07-25T08:48:23.146Z,25.40
2022-07-25T08:50:52.965Z,25.40
2022-07-25T08:53:37.399Z,25.50
2022-07-25T08:56:13.751Z,25.60
2022-07-25T08:58:44.574Z,25.50
2022-07-25T09:01:14.713Z,25.50
2022-07-25T09:03:44.356Z,25.40
2022-07-25T09:06:22.960Z,25.40
2022-07-25T09:08:58.642Z,25.40
2022-07-25T09:11:32.217Z,25.40
2022-07-25T09:14:10.169Z,25.40
2022-07-25T09:16:41.304Z,25.50
2022-07-25T09:19:11.364Z,25.60
2022-07-25T09:21:40.645Z,25.70
2022-07-25T09:24:11.310Z,25.80
2022-07-25T09:26:51.979Z,25.90
2022-07-25T09:29:34.633Z,25.90
2022-07-25T09:32:14.529Z,26.00
2022-07-25T09:34:45.790Z,25.90
2022-07-25T09:37:17.353Z,25.90
2022-07-25T09:39:50.091Z,25.90
2022-07-25T09:42:22.902Z,25.90
2022-07-25T09:45:08.062Z,26.00
2022-07-25T09:47:38.876Z,26.10
2022-07-25T09:50:08.345Z,26.30
2022-07-25T09:52:37.649Z,26.30
2022-07-25T09:55:06.545Z,26.30
2022-07-25T09:57:34.854Z,26.30
2022-07-25T10:00:03.561Z,26.30
2022-07-25T10:03:09.823Z,26.30
2022-07-25T10:06:02.854Z,26.30
2022-07-25T10:08:39.811Z,26.30
2022-07-25T10:11:26.269Z,26.40
2022-07-25T10:13:55.604Z,26.40
2022-07-25T10:16:28.150Z,26.40
2022-07-25T10:18:58.163Z,26.40
2022-07-25T10:21:28.470Z,26.40
2022-07-25T10:24:08.901Z,26.50
2022-07-25T10:26:39.693Z,26.60
2022-07-25T10:29:12.515Z,26.70
2022-07-25T10:31:50.376Z,26.90
2022-07-25T10:34:30.549Z,27.00
2022-07-25T10:37:08.974Z,27.00
2022-07-25T10:39:41.938Z,27.10
2022-07-25T10:42:14.923Z,27.20
2022-07-25T10:44:56.387Z,27.20
2022-07-25T10:47:27.890Z,27.20
2022-07-25T10:50:16.943Z,27.30
2022-07-25T10:53:01.705Z,27.40
2022-07-25T10:55:30.341Z,27.60
2022-07-25T10:58:17.096Z,27.70
2022-07-25T11:00:46.102Z,27.80
2022-07-25T11:03:18.089Z,27.70
2022-07-25T11:05:49.595Z,27.60
2022-07-25T11:08:22.391Z,27.50
2022-07-25T11:10:54.032Z,27.60
2022-07-25T11:13:22.472Z,27.50
2022-07-25T11:15:51.228Z,27.40
2022-07-25T11:18:19.537Z,27.50
2022-07-25T11:20:48.074Z,27.50
2022-07-25T11:23:22.881Z,27.50
2022-07-25T11:25:51.245Z,27.60
2022-07-25T11:28:19.412Z,27.70
2022-07-25T11:30:48.927Z,27.70
2022-07-25T11:33:17.782Z,27.50
2022-07-25T11:35:46.641Z,27.40
2022-07-25T11:38:15.723Z,27.30
2022-07-25T11:40:46.509Z,27.30
2022-07-25T11:43:24.778Z,27.30
2022-07-25T11:46:07.337Z,27.30
2022-07-25T11:48:40.137Z,27.40
2022-07-25T11:51:19.415Z,27.40
2022-07-25T11:53:50.940Z,27.40
2022-07-25T11:59:12.391Z,27.50
2022-07-25T12:01:43.445Z,27.50
2022-07-25T12:04:21.254Z,27.40
2022-07-25T12:06:50.530Z,27.50
2022-07-25T12:09:21.096Z,27.50
2022-07-25T12:11:50.503Z,27.60
2022-07-25T12:14:18.947Z,27.70
2022-07-25T12:16:47.335Z,27.80
2022-07-25T12:19:23.637Z,27.70
2022-07-25T12:21:51.989Z,27.70
2022-07-25T12:24:20.250Z,27.60
2022-07-25T12:26:48.463Z,27.60
2022-07-25T12:29:16.969Z,27.70
2022-07-25T12:31:45.079Z,27.80
2022-07-25T12:34:13.321Z,27.80
2022-07-25T12:36:41.803Z,28.00
2022-07-25T12:39:10.519Z,28.20
2022-07-25T12:41:38.822Z,28.20
2022-07-25T12:44:07.172Z,28.20
2022-07-25T12:46:35.553Z,28.20
2022-07-25T12:49:04.164Z,28.30
2022-07-25T12:51:32.561Z,28.30
2022-07-25T12:54:00.908Z,28.50
2022-07-25T12:56:29.173Z,28.40
2022-07-25T12:58:57.500Z,28.30
2022-07-25T13:01:25.947Z,28.20
2022-07-25T13:03:54.223Z,28.20
2022-07-25T13:06:22.515Z,28.30
2022-07-25T13:08:50.777Z,28.30
2022-07-25T13:11:19.189Z,28.30
2022-07-25T13:13:47.488Z,28.30
2022-07-25T13:16:15.869Z,28.30
2022-07-25T13:18:44.143Z,28.40
2022-07-25T13:21:12.643Z,28.40
2022-07-25T13:23:41.489Z,28.40
2022-07-25T13:26:09.822Z,28.50
2022-07-25T13:28:38.087Z,28.40
2022-07-25T13:31:07.007Z,28.30
2022-07-25T13:33:35.556Z,28.20
2022-07-25T13:36:03.959Z,28.10
2022-07-25T13:38:32.318Z,28.10
2022-07-25T13:41:00.611Z,28.20
2022-07-25T13:43:28.913Z,28.20
2022-07-25T13:45:57.288Z,28.30
2022-07-25T13:48:30.381Z,28.40
2022-07-25T13:51:00.128Z,28.40
2022-07-25T13:53:30.398Z,28.40
2022-07-25T13:56:00.074Z,28.50
2022-07-25T13:58:28.531Z,28.50
2022-07-25T14:00:56.834Z,28.50
2022-07-25T14:03:25.329Z,28.50
2022-07-25T14:05:53.667Z,28.50
2022-07-25T14:08:21.944Z,28.50
2022-07-25T14:10:50.194Z,28.60
2022-07-25T14:13:18.754Z,28.70
2022-07-25T14:15:46.960Z,28.80
2022-07-25T14:18:16.029Z,28.70
2022-07-25T14:20:44.643Z,28.70
2022-07-25T14:23:13.108Z,28.70
2022-07-25T14:25:41.289Z,28.80
2022-07-25T14:28:10.027Z,28.90
2022-07-25T14:30:38.385Z,28.80
2022-07-25T14:33:06.541Z,28.80
2022-07-25T14:35:35.765Z,28.80
2022-07-25T14:38:04.754Z,28.80
2022-07-25T14:40:33.362Z,28.80
2022-07-25T14:43:01.625Z,28.90
2022-07-25T14:45:30.252Z,29.00
2022-07-25T14:47:58.640Z,29.10
2022-07-25T14:50:27.065Z,29.10
2022-07-25T14:52:55.449Z,29.00
2022-07-25T14:55:23.786Z,28.90
2022-07-25T14:57:52.139Z,29.00
2022-07-25T15:00:20.592Z,29.00
2022-07-25T15:02:49.803Z,29.10
2022-07-25T15:05:18.048Z,29.20
2022-07-25T15:07:46.486Z,29.30
2022-07-25T15:10:14.818Z,29.40
2022-07-25T15:12:43.097Z,29.50
2022-07-25T15:15:11.644Z,29.50
2022-07-25T15:17:40.150Z,29.40
2022-07-25T15:20:09.257Z,29.50
2022-07-25T15:22:37.816Z,29.50
2022-07-25T15:25:37.207Z,29.50
2022-07-25T15:27:54.738Z,29.30
2022-07-25T15:30:28.842Z,29.30
2022-07-25T15:32:57.818Z,29.30
2022-07-25T15:35:26.213Z,29.40
2022-07-25T15:37:54.493Z,29.20
2022-07-25T15:40:23.035Z,29.20
2022-07-25T15:42:51.219Z,29.40
2022-07-25T15:45:34.680Z,29.50
2022-07-25T15:48:03.176Z,29.40
2022-07-25T15:50:31.343Z,29.30
2022-07-25T15:52:59.742Z,29.40
2022-07-25T15:55:27.909Z,29.60
2022-07-25T15:57:56.982Z,29.70
2022-07-25T16:00:29.427Z,29.70
2022-07-25T16:02:58.583Z,29.60
2022-07-25T16:05:27.374Z,29.70
2022-07-25T16:07:55.781Z,29.80
2022-07-25T16:10:24.285Z,29.90
2022-07-25T16:12:52.486Z,30.10
2022-07-25T16:15:20.745Z,30.20
2022-07-25T16:17:50.468Z,30.30
2022-07-25T16:20:18.847Z,30.30
2022-07-25T16:22:47.389Z,30.50
2022-07-25T16:25:16.004Z,30.60
2022-07-25T16:27:44.393Z,30.70
2022-07-25T16:30:14.058Z,30.80
2022-07-25T16:32:44.680Z,30.90
2022-07-25T16:35:12.974Z,31.00
2022-07-25T16:37:41.698Z,30.90
2022-07-25T16:40:10.783Z,31.20
2022-07-25T16:42:39.449Z,31.40
2022-07-25T16:45:08.273Z,31.60
2022-07-25T16:47:36.756Z,31.70
2022-07-25T16:50:05.517Z,32.10
2022-07-25T16:52:33.815Z,32.40
2022-07-25T16:55:02.100Z,32.80
2022-07-25T16:57:31.401Z,33.20
2022-07-25T16:59:59.745Z,33.90
2022-07-25T17:02:29.989Z,34.60
2022-07-25T17:04:59.108Z,34.60
2022-07-25T17:07:27.816Z,35.00
2022-07-25T17:09:56.085Z,35.10
2022-07-25T17:12:24.585Z,35.30
2022-07-25T17:17:21.527Z,35.40
2022-07-25T17:19:49.862Z,35.60
2022-07-25T17:22:18.059Z,35.90
2022-07-25T17:24:46.419Z,35.80
2022-07-25T17:27:14.688Z,36.30
2022-07-25T17:29:42.963Z,36.50
2022-07-25T17:32:11.338Z,36.40
2022-07-25T17:39:37.941Z,36.50
2022-07-25T17:42:06.317Z,36.50
2022-07-25T18:44:25.988Z,29.20
2022-07-25T18:46:54.293Z,29.00
2022-07-25T18:49:22.778Z,28.60
2022-07-25T18:51:51.245Z,28.50
2022-07-25T18:54:19.466Z,28.40
2022-07-25T18:56:47.795Z,28.10
2022-07-25T18:59:16.620Z,28.00
2022-07-25T19:01:45.216Z,27.90
2022-07-25T19:04:13.718Z,27.70
2022-07-25T19:06:41.990Z,27.70
2022-07-25T19:09:10.340Z,27.60
2022-07-25T19:11:42.161Z,27.40
2022-07-25T19:14:10.780Z,27.40
2022-07-25T19:16:39.342Z,27.30
2022-07-25T19:19:07.877Z,27.30
2022-07-25T19:21:36.328Z,27.20
2022-07-25T19:24:05.403Z,27.20
2022-07-25T19:26:33.918Z,27.10
2022-07-25T19:29:02.384Z,27.10
2022-07-25T19:31:30.843Z,27.10
2022-07-25T19:33:59.184Z,27.00
2022-07-25T19:36:27.452Z,27.00
2022-07-25T19:38:55.693Z,26.90
2022-07-25T19:41:24.106Z,26.80
2022-07-25T19:43:53.434Z,26.80
2022-07-25T19:46:22.253Z,26.80
2022-07-25T19:48:50.628Z,26.80
2022-07-25T19:51:19.089Z,26.80
2022-07-25T19:53:47.393Z,26.80
2022-07-25T19:56:15.666Z,26.80
2022-07-25T19:58:43.935Z,26.70
2022-07-25T20:01:13.503Z,26.70
2022-07-25T20:03:42.455Z,26.60
2022-07-25T20:06:10.959Z,26.60
2022-07-25T20:08:39.447Z,26.50
2022-07-25T20:11:08.973Z,26.40
2022-07-25T20:13:37.215Z,26.50
2022-07-25T20:16:07.245Z,26.40
2022-07-25T20:18:35.567Z,26.40
2022-07-25T20:21:03.905Z,26.40
2022-07-25T20:23:32.580Z,26.40
2022-07-25T20:26:00.902Z,26.30
2022-07-25T20:28:29.118Z,26.30
2022-07-25T20:30:58.027Z,26.30
2022-07-25T20:33:27.633Z,26.20
2022-07-25T20:35:56.976Z,26.20
2022-07-25T20:38:26.114Z,26.20
2022-07-25T20:40:56.316Z,26.10
2022-07-25T20:43:25.779Z,26.10
2022-07-25T20:45:56.107Z,26.10
2022-07-25T20:48:24.640Z,26.10
2022-07-25T20:50:52.823Z,26.10
2022-07-25T20:53:21.202Z,26.10
2022-07-25T20:55:49.498Z,26.10
2022-07-25T20:58:18.019Z,26.10
2022-07-25T21:00:47.289Z,26.00
2022-07-25T21:03:17.031Z,26.00
2022-07-25T21:05:45.157Z,26.00
2022-07-25T21:08:13.437Z,26.00
2022-07-25T21:10:41.853Z,26.00
2022-07-25T21:13:10.201Z,26.00
2022-07-25T21:15:38.781Z,25.90
2022-07-25T21:18:07.199Z,25.90
2022-07-25T21:20:37.516Z,25.90
2022-07-25T21:23:06.017Z,25.90
2022-07-25T21:25:34.362Z,25.90
2022-07-25T21:28:02.614Z,25.90
2022-07-25T21:30:30.895Z,25.90
2022-07-25T21:32:59.414Z,25.90
2022-07-25T21:35:27.761Z,25.80
2022-07-25T21:37:55.958Z,25.70
2022-07-25T21:40:24.400Z,25.70
2022-07-25T21:42:52.848Z,25.70
2022-07-25T21:45:21.272Z,25.60
2022-07-25T21:47:49.768Z,25.60
2022-07-25T21:50:24.193Z,25.60
2022-07-25T21:52:53.807Z,25.60
2022-07-25T21:55:23.038Z,25.50
2022-07-25T21:57:51.720Z,25.50
2022-07-25T22:00:20.833Z,25.50
2022-07-25T22:02:49.704Z,25.60
2022-07-25T22:05:19.636Z,25.50
2022-07-25T22:07:48.566Z,25.40
2022-07-25T22:10:21.624Z,25.40
2022-07-25T22:12:49.950Z,25.40
2022-07-25T22:15:18.215Z,25.40
2022-07-25T22:17:48.946Z,25.40
2022-07-25T22:20:19.336Z,25.40
2022-07-25T22:22:49.219Z,25.40
2022-07-25T22:25:18.261Z,25.30
2022-07-25T22:27:46.489Z,25.30
2022-07-25T22:30:19.179Z,25.30
2022-07-25T22:32:49.119Z,25.20
2022-07-25T22:35:18.245Z,25.20
2022-07-25T22:37:46.907Z,25.20
2022-07-25T22:40:15.155Z,25.10
2022-07-25T22:42:43.593Z,25.20
2022-07-25T22:45:12.014Z,25.20
2022-07-25T22:47:40.151Z,25.20
2022-07-25T22:50:09.404Z,25.20
2022-07-25T22:52:37.614Z,25.30
2022-07-25T22:55:06.367Z,25.20
2022-07-25T22:57:37.135Z,25.10
2022-07-25T23:00:08.388Z,25.10
2022-07-25T23:02:36.817Z,25.10
2022-07-25T23:05:06.584Z,25.10
2022-07-25T23:07:35.309Z,25.10
2022-07-25T23:10:04.776Z,25.10
2022-07-25T23:12:33.008Z,25.00
2022-07-25T23:15:01.501Z,25.10
2022-07-25T23:17:29.785Z,25.00
2022-07-25T23:19:58.406Z,25.10
2022-07-25T23:22:28.378Z,25.10
2022-07-25T23:24:56.932Z,25.00
2022-07-25T23:27:25.608Z,25.00
2022-07-25T23:29:54.140Z,25.00
2022-07-25T23:32:22.448Z,25.00
2022-07-25T23:34:50.670Z,24.90
2022-07-25T23:37:18.977Z,24.90
2022-07-25T23:39:47.226Z,24.90
2022-07-25T23:42:15.383Z,24.90
2022-07-25T23:44:43.855Z,24.90
2022-07-25T23:47:12.990Z,24.90
2022-07-25T23:49:41.579Z,24.90
2022-07-25T23:52:10.117Z,24.90
2022-07-25T23:54:38.572Z,25.00
2022-07-25T23:57:07.419Z,25.00
2022-07-25T23:59:36.298Z,25.00
